Time;durP1;ratioP1;P1;durP2;ratioP2;P2;SDS_P1;SDS_P2;PMS_P1;PMS_P2;Temp;Humidity;BMP_temperature;BMP_pressure;BME280_temperature;BME280_humidity;BME280_pressure;Samples;Min_cycle;Max_cycle;Signal;HPM_P1;HPM_P2
2021/03/20 00:01:59;;;;;;;;;;;0.40;99.90;;;;;;5077545;28;19935;-78
2021/03/20 00:04:24;;;;;;;;;;;0.40;99.90;;;;;;5077680;28;19999;-79
2021/03/20 00:06:52;;;;;;;;;;;0.40;99.90;;;;;;5078316;28;20434;-78
2021/03/20 00:09:19;;;;;;;;;;;0.40;99.90;;;;;;5076829;28;19908;-77
2021/03/20 00:11:46;;;;;;;;;;;0.30;99.90;;;;;;5075908;28;19948;-78
2021/03/20 00:14:12;;;;;;;;;;;0.30;99.90;;;;;;5075776;28;19920;-78
2021/03/20 00:16:37;;;;;;;;;;;0.20;99.90;;;;;;5076894;28;20463;-79
2021/03/20 00:19:03;;;;;;;;;;;0.10;99.90;;;;;;5075401;28;19952;-78
2021/03/20 00:21:28;;;;;;;;;;;0.00;99.90;;;;;;5073522;28;19916;-80
2021/03/20 00:23:54;;;;;;;;;;;0.00;99.90;;;;;;5073032;28;20045;-78
2021/03/20 00:26:20;;;;;;;;;;;0.00;99.90;;;;;;5073536;28;19909;-78
2021/03/20 00:28:45;;;;;;;;;;;0.00;99.90;;;;;;5074350;28;19916;-78
2021/03/20 00:31:12;;;;;;;;;;;0.00;99.90;;;;;;5073563;28;20279;-78
2021/03/20 00:33:39;;;;;;;;;;;-0.10;99.90;;;;;;5073085;28;19966;-79
2021/03/20 00:36:06;;;;;;;;;;;0.00;99.90;;;;;;5072849;28;19912;-78
2021/03/20 00:38:32;;;;;;;;;;;0.10;99.90;;;;;;5073290;28;20371;-77
2021/03/20 00:40:57;;;;;;;;;;;0.00;99.90;;;;;;5073051;28;20028;-79
2021/03/20 00:43:24;;;;;;;;;;;-0.10;99.90;;;;;;5073002;28;19915;-76
2021/03/20 00:45:49;;;;;;;;;;;-0.10;99.90;;;;;;5073171;28;20364;-78
2021/03/20 00:48:17;;;;;;;;;;;-0.20;99.90;;;;;;5072751;28;19908;-78
2021/03/20 00:50:43;;;;;;;;;;;-0.30;99.90;;;;;;5074405;28;20287;-76
2021/03/20 00:53:09;;;;;;;;;;;-0.30;99.90;;;;;;5073048;28;19908;-77
2021/03/20 00:55:34;;;;;;;;;;;-0.40;99.90;;;;;;5072785;28;19908;-77
2021/03/20 00:58:00;;;;;;;;;;;-0.50;99.90;;;;;;5074565;28;19912;-78
2021/03/20 01:00:27;;;;;;;;;;;-0.50;99.90;;;;;;5076627;28;19909;-81
2021/03/20 01:02:52;;;;;;;;;;;-0.50;99.90;;;;;;5078281;28;19990;-81
2021/03/20 01:05:18;;;;;;;;;;;-0.50;99.90;;;;;;5079142;28;19987;-80
2021/03/20 01:07:45;;;;;;;;;;;-0.40;99.90;;;;;;5079237;28;19908;-81
2021/03/20 01:10:15;;;;;;;;;;;-0.30;99.90;;;;;;5078554;28;19909;-81
2021/03/20 01:12:41;;;;;;;;;;;-0.30;99.90;;;;;;5076836;28;19988;-80
2021/03/20 01:15:07;;;;;;;;;;;-0.20;99.90;;;;;;5074298;28;19989;-80
2021/03/20 01:17:32;;;;;;;;;;;-0.20;99.90;;;;;;5075314;28;19923;-79
2021/03/20 01:19:58;;;;;;;;;;;-0.20;99.90;;;;;;5074225;28;19909;-79
2021/03/20 01:22:23;;;;;;;;;;;-0.20;99.90;;;;;;5074463;28;19909;-78
2021/03/20 01:24:49;;;;;;;;;;;0.00;99.90;;;;;;5074161;28;19918;-79
2021/03/20 01:27:14;;;;;;;;;;;0.10;99.90;;;;;;5074415;28;19909;-78
2021/03/20 01:29:40;;;;;;;;;;;0.00;99.90;;;;;;5075329;28;19935;-79
2021/03/20 01:32:05;;;;;;;;;;;0.00;99.90;;;;;;5074669;28;20424;-80
2021/03/20 01:34:31;;;;;;;;;;;0.00;99.90;;;;;;5074449;28;19909;-80
2021/03/20 01:36:56;;;;;;;;;;;0.20;99.90;;;;;;5075703;28;19913;-78
2021/03/20 01:39:22;;;;;;;;;;;0.20;99.90;;;;;;5073933;28;20586;-77
2021/03/20 01:41:47;;;;;;;;;;;0.10;99.90;;;;;;5073744;28;19916;-78
2021/03/20 01:44:17;;;;;;;;;;;0.00;99.90;;;;;;5073877;28;19993;-79
2021/03/20 01:46:46;;;;;;;;;;;0.10;99.90;;;;;;5075605;28;19913;-79
2021/03/20 01:49:24;;;;;;;;;;;0.10;99.90;;;;;;5074247;28;19913;-80
2021/03/20 01:52:10;;;;;;;;;;;0.20;99.90;;;;;;5074103;28;19913;-78
2021/03/20 01:54:43;;;;;;;;;;;0.40;99.90;;;;;;5059472;28;19940;-78
2021/03/20 01:57:08;;;;;;;;;;;0.40;99.90;;;;;;5074843;28;19912;-77
2021/03/20 01:59:34;;;;;;;;;;;0.50;99.90;;;;;;5075197;28;19915;-79
2021/03/20 02:02:00;;;;;;;;;;;0.60;99.90;;;;;;5073893;28;20279;-82
2021/03/20 02:04:25;;;;;;;;;;;0.60;99.90;;;;;;5073962;28;20295;-78
2021/03/20 02:06:51;;;;;;;;;;;0.70;99.90;;;;;;5074244;28;19966;-76
2021/03/20 02:09:16;;;;;;;;;;;0.80;99.90;;;;;;5075334;28;20375;-79
2021/03/20 02:11:47;;;;;;;;;;;0.80;99.90;;;;;;5077936;28;20386;-80
2021/03/20 02:14:25;;;;;;;;;;;0.70;99.90;;;;;;5077840;28;19924;-79
2021/03/20 02:16:57;;;;;;;;;;;0.80;99.90;;;;;;5078459;28;19912;-77
2021/03/20 02:19:38;;;;;;;;;;;0.70;99.90;;;;;;5078036;28;19912;-78
2021/03/20 02:22:07;;;;;;;;;;;0.70;99.90;;;;;;5077608;28;19920;-81
2021/03/20 02:24:41;;;;;;;;;;;0.60;99.90;;;;;;5077501;28;19908;-79
2021/03/20 02:27:07;;;;;;;;;;;0.60;99.90;;;;;;5077579;28;19947;-83
2021/03/20 02:29:51;;;;;;;;;;;0.50;99.90;;;;;;5077504;28;19962;-80
2021/03/20 02:32:22;;;;;;;;;;;0.40;99.90;;;;;;5077014;28;20350;-82
2021/03/20 02:34:47;;;;;;;;;;;0.40;99.90;;;;;;5079068;28;19944;-80
2021/03/20 02:37:21;;;;;;;;;;;0.30;99.90;;;;;;5078654;28;19989;-80
2021/03/20 02:39:50;;;;;;;;;;;0.30;99.90;;;;;;5079123;28;20007;-81
2021/03/20 02:42:18;;;;;;;;;;;0.30;99.90;;;;;;5077799;28;19908;-78
2021/03/20 02:44:59;;;;;;;;;;;0.20;99.90;;;;;;5077018;28;19972;-79
2021/03/20 02:47:38;;;;;;;;;;;0.20;99.90;;;;;;5078459;28;20375;-79
2021/03/20 02:50:06;;;;;;;;;;;0.20;99.90;;;;;;5077790;28;19916;-80
2021/03/20 02:52:50;;;;;;;;;;;0.20;99.90;;;;;;5079026;28;19916;-81
2021/03/20 02:55:20;;;;;;;;;;;0.20;99.90;;;;;;5077440;28;19908;-78
2021/03/20 02:57:52;;;;;;;;;;;0.20;99.90;;;;;;5076785;28;19912;-80
2021/03/20 03:00:30;;;;;;;;;;;0.10;99.90;;;;;;5077862;28;20478;-81
2021/03/20 03:02:56;;;;;;;;;;;0.10;99.90;;;;;;5077289;28;19909;-80
2021/03/20 03:05:24;;;;;;;;;;;0.10;99.90;;;;;;5077488;28;19916;-82
2021/03/20 03:07:58;;;;;;;;;;;0.10;99.90;;;;;;5077419;28;19908;-81
2021/03/20 03:10:29;;;;;;;;;;;0.00;99.90;;;;;;5078416;28;20310;-81
2021/03/20 03:12:59;;;;;;;;;;;-0.10;99.90;;;;;;5078796;28;19962;-81
2021/03/20 03:15:26;;;;;;;;;;;0.00;99.90;;;;;;5077033;28;19916;-81
2021/03/20 03:17:56;;;;;;;;;;;0.00;99.90;;;;;;5076861;28;19912;-80
2021/03/20 03:20:27;;;;;;;;;;;-0.10;99.90;;;;;;5077365;28;19915;-81
2021/03/20 03:23:01;;;;;;;;;;;-0.10;99.90;;;;;;5077188;28;20364;-80
2021/03/20 03:25:27;;;;;;;;;;;0.10;99.90;;;;;;5076964;28;19947;-79
2021/03/20 03:27:55;;;;;;;;;;;0.10;99.90;;;;;;5077256;28;20390;-79
2021/03/20 03:30:22;;;;;;;;;;;0.10;99.90;;;;;;5078210;28;19942;-80
2021/03/20 03:32:50;;;;;;;;;;;0.00;99.90;;;;;;5076665;28;19963;-81
2021/03/20 03:35:22;;;;;;;;;;;0.00;99.90;;;;;;5077786;28;20376;-79
2021/03/20 03:37:57;;;;;;;;;;;0.00;99.90;;;;;;5076779;28;19912;-82
2021/03/20 03:40:42;;;;;;;;;;;-0.10;99.90;;;;;;5077080;28;19908;-82
2021/03/20 03:43:08;;;;;;;;;;;0.00;99.90;;;;;;5062948;28;20003;-80
2021/03/20 03:45:34;;;;;;;;;;;0.00;99.90;;;;;;5076787;28;19947;-80
2021/03/20 03:47:59;;;;;;;;;;;0.00;99.90;;;;;;5076715;28;19915;-78
2021/03/20 03:50:31;;;;;;;;;;;-0.10;99.90;;;;;;5078155;28;19915;-80
2021/03/20 03:52:57;;;;;;;;;;;-0.20;99.90;;;;;;5078532;28;19908;-81
2021/03/20 03:55:22;;;;;;;;;;;-0.20;99.90;;;;;;5077704;28;19908;-83
2021/03/20 03:57:48;;;;;;;;;;;-0.30;99.90;;;;;;5077971;28;20375;-79
2021/03/20 04:00:29;;;;;;;;;;;-0.20;99.90;;;;;;5080797;28;19908;-83
2021/03/20 04:03:12;;;;;;;;;;;-0.20;99.90;;;;;;5080100;28;19916;-81
2021/03/20 04:06:05;;;;;;;;;;;-0.20;99.90;;;;;;5079830;28;19908;-80
2021/03/20 04:08:30;;;;;;;;;;;-0.20;99.90;;;;;;5080757;28;19999;-80
2021/03/20 04:11:06;;;;;;;;;;;-0.20;99.90;;;;;;5080143;28;19958;-84
2021/03/20 04:13:36;;;;;;;;;;;-0.30;99.90;;;;;;5079401;28;20379;-82
2021/03/20 04:16:15;;;;;;;;;;;-0.30;99.90;;;;;;5079317;28;19988;-81
2021/03/20 04:18:41;;;;;;;;;;;-0.30;99.90;;;;;;5077480;28;20387;-81
2021/03/20 04:21:09;;;;;;;;;;;-0.40;99.90;;;;;;5076320;28;19908;-78
2021/03/20 04:23:36;;;;;;;;;;;-0.50;99.90;;;;;;5076232;28;19912;-78
2021/03/20 04:26:12;;;;;;;;;;;-0.40;99.90;;;;;;5076836;28;19908;-82
2021/03/20 04:28:41;;;;;;;;;;;-0.50;99.90;;;;;;5076180;28;19912;-79
2021/03/20 04:31:10;;;;;;;;;;;-0.50;99.90;;;;;;5076335;28;20272;-79
2021/03/20 04:33:46;;;;;;;;;;;-0.60;99.90;;;;;;5075664;28;19920;-81
2021/03/20 04:36:18;;;;;;;;;;;-0.60;99.90;;;;;;5075911;28;19971;-80
2021/03/20 04:38:44;;;;;;;;;;;-0.60;99.90;;;;;;5075981;28;19913;-82
2021/03/20 04:41:10;;;;;;;;;;;-0.60;99.90;;;;;;5075678;28;19908;-81
2021/03/20 04:43:37;;;;;;;;;;;-0.50;99.90;;;;;;5075318;28;19943;-81
2021/03/20 04:46:05;;;;;;;;;;;-0.40;99.90;;;;;;5075914;28;19908;-80
2021/03/20 04:48:33;;;;;;;;;;;-0.40;99.90;;;;;;5076214;28;19909;-81
2021/03/20 04:51:00;;;;;;;;;;;-0.40;99.90;;;;;;5076149;28;19908;-80
2021/03/20 04:53:26;;;;;;;;;;;-0.50;99.90;;;;;;5077541;28;19908;-80
2021/03/20 04:55:55;;;;;;;;;;;-0.50;99.90;;;;;;5075477;28;19915;-81
2021/03/20 04:58:41;;;;;;;;;;;-0.40;99.90;;;;;;5075306;28;19965;-81
2021/03/20 05:01:18;;;;;;;;;;;-0.60;99.90;;;;;;5075880;28;19987;-81
2021/03/20 05:03:46;;;;;;;;;;;-0.70;99.90;;;;;;5077100;28;20374;-79
2021/03/20 05:06:12;;;;;;;;;;;-0.80;99.90;;;;;;5075953;28;19909;-82
2021/03/20 05:08:39;;;;;;;;;;;-0.80;99.90;;;;;;5077305;28;19939;-80
2021/03/20 05:11:08;;;;;;;;;;;-0.70;99.90;;;;;;5075958;28;20283;-79
2021/03/20 05:13:39;;;;;;;;;;;-0.80;99.90;;;;;;5076095;28;20295;-81
2021/03/20 05:16:25;;;;;;;;;;;-0.90;99.90;;;;;;5075549;28;20378;-80
2021/03/20 05:18:51;;;;;;;;;;;-0.90;99.90;;;;;;5061656;28;19912;-80
2021/03/20 05:21:18;;;;;;;;;;;-0.80;99.90;;;;;;5071369;28;19915;-80
2021/03/20 05:23:44;;;;;;;;;;;-0.80;99.90;;;;;;5074857;28;20002;-81
2021/03/20 05:26:10;;;;;;;;;;;-0.70;99.90;;;;;;5075924;28;19912;-81
2021/03/20 05:28:36;;;;;;;;;;;-0.70;99.90;;;;;;5075640;28;19908;-80
2021/03/20 05:31:02;;;;;;;;;;;-0.70;99.90;;;;;;5075771;28;19908;-81
2021/03/20 05:33:27;;;;;;;;;;;-0.70;99.90;;;;;;5075550;28;19912;-82
2021/03/20 05:35:53;;;;;;;;;;;-0.80;99.90;;;;;;5076069;28;19912;-81
2021/03/20 05:38:19;;;;;;;;;;;-0.80;99.90;;;;;;5076138;28;19912;-82
2021/03/20 05:40:44;;;;;;;;;;;-0.80;99.90;;;;;;5075611;28;19959;-80
2021/03/20 05:43:22;;;;;;;;;;;-0.70;99.90;;;;;;5076199;28;19919;-83
2021/03/20 05:45:57;;;;;;;;;;;-0.70;99.90;;;;;;5079237;28;19908;-80
2021/03/20 05:48:26;;;;;;;;;;;-0.70;99.90;;;;;;5079099;28;19970;-81
2021/03/20 05:50:54;;;;;;;;;;;-0.60;99.90;;;;;;5067968;28;19908;-82
2021/03/20 05:53:25;;;;;;;;;;;-0.50;99.90;;;;;;5077421;28;19919;-81
2021/03/20 05:55:55;;;;;;;;;;;-0.40;99.90;;;;;;5076358;28;19908;-79
2021/03/20 05:58:21;;;;;;;;;;;-0.40;99.90;;;;;;5079114;28;19934;-83
2021/03/20 06:00:51;;;;;;;;;;;-0.40;99.90;;;;;;5066973;28;19908;-82
2021/03/20 06:03:28;;;;;;;;;;;-0.30;99.90;;;;;;5057866;28;19909;-81
2021/03/20 06:05:58;;;;;;;;;;;-0.30;99.90;;;;;;5058586;28;19909;-81
2021/03/20 06:08:27;;;;;;;;;;;-0.20;99.90;;;;;;5058327;28;19996;-81
2021/03/20 06:10:56;;;;;;;;;;;0.00;99.90;;;;;;5059588;28;19936;-79
2021/03/20 06:13:40;;;;;;;;;;;0.10;99.90;;;;;;5059088;28;19946;-81
2021/03/20 06:16:18;;;;;;;;;;;0.20;99.90;;;;;;5058522;28;20310;-80
2021/03/20 06:19:16;;;;;;;5.03;3.25;;;0.30;99.90;;;;;;5058305;28;20023;-82
2021/03/20 06:22:19;;;;;;;7.22;4.35;;;0.50;99.90;;;;;;5057199;28;20048;-80
2021/03/20 06:24:50;;;;;;;7.10;3.63;;;0.70;99.90;;;;;;5059548;28;20029;-80
2021/03/20 06:27:32;;;;;;;7.57;3.60;;;0.90;99.90;;;;;;5056634;28;20025;-80
2021/03/20 06:30:05;;;;;;;4.70;2.60;;;1.00;99.90;;;;;;5056558;28;20021;-81
2021/03/20 06:32:42;;;;;;;7.63;3.17;;;1.10;99.90;;;;;;5056774;28;20047;-81
2021/03/20 06:35:13;;;;;;;6.22;3.28;;;1.20;99.90;;;;;;5057829;28;20050;-80
2021/03/20 06:37:42;;;;;;;5.13;3.60;;;1.30;99.90;;;;;;5057724;28;20025;-78
2021/03/20 06:40:21;;;;;;;6.75;3.75;;;1.20;99.90;;;;;;5058357;28;20053;-80
2021/03/20 06:42:47;;;;;;;5.63;3.47;;;1.30;99.90;;;;;;5056981;28;20021;-81
2021/03/20 06:45:18;;;;;;;8.02;4.15;;;1.30;99.90;;;;;;5064805;28;20695;-80
2021/03/20 06:47:48;;;;;;;6.03;3.17;;;1.30;99.90;;;;;;5057736;28;20395;-80
2021/03/20 06:50:24;;;;;;;5.85;3.60;;;1.40;99.90;;;;;;5057485;28;20040;-80
2021/03/20 06:53:01;;;;;;;8.23;3.55;;;1.40;99.90;;;;;;5056971;28;20164;-81
2021/03/20 06:55:29;;;;;;;6.28;3.75;;;1.60;99.90;;;;;;5057129;28;20025;-80
2021/03/20 06:57:55;;;;;;;5.30;3.33;;;1.70;99.90;;;;;;5057975;28;20475;-80
2021/03/20 07:00:29;;;;;;;8.48;4.20;;;1.70;99.90;;;;;;5059516;28;20052;-81
2021/03/20 07:02:54;;;;;;;;;;;2.00;99.90;;;;;;5057799;28;20029;-82
2021/03/20 07:05:19;;;;;;;;;;;2.10;99.90;;;;;;5057731;28;19911;-81
2021/03/20 07:07:52;;;;;;;;;;;2.20;99.90;;;;;;5056714;28;19908;-80
2021/03/20 07:10:41;;;;;;;4.15;3.20;;;2.40;99.90;;;;;;5057596;28;19905;-81
2021/03/20 07:13:28;;;;;;;5.70;3.33;;;2.60;99.90;;;;;;5056716;28;20029;-80
2021/03/20 07:16:07;;;;;;;;;;;3.90;99.90;;;;;;5057673;28;20025;-81
2021/03/20 07:18:46;;;;;;;5.15;2.20;;;5.20;99.90;;;;;;5058521;28;19991;-79
2021/03/20 07:21:28;;;;;;;4.47;2.80;;;7.60;99.90;;;;;;5055777;28;20060;-78
2021/03/20 07:24:17;;;;;;;4.57;2.53;;;8.60;99.90;;;;;;5054272;28;20025;-78
2021/03/20 07:26:51;;;;;;;5.97;3.20;;;6.70;99.90;;;;;;5055972;28;20064;-79
2021/03/20 07:29:17;;;;;;;;;;;6.00;99.90;;;;;;5054026;28;20108;-79
2021/03/20 07:31:58;;;;;;;4.00;2.72;;;5.70;99.90;;;;;;5053885;28;20299;-78
2021/03/20 07:34:29;;;;;;;6.68;3.20;;;7.30;99.90;;;;;;5057649;28;20021;-80
2021/03/20 07:37:12;;;;;;;4.63;2.65;;;7.80;99.90;;;;;;5055169;28;20075;-78
2021/03/20 07:39:44;;;;;;;4.93;3.05;;;6.90;99.90;;;;;;5053866;28;20032;-79
2021/03/20 07:42:29;;;;;;;;;;;7.20;99.90;;;;;;5055606;28;20499;-77
2021/03/20 07:44:56;;;;;;;3.05;2.30;;;10.50;99.90;;;;;;5063681;28;20367;-78
2021/03/20 07:47:25;;;;;;;4.72;2.90;;;10.00;99.80;;;;;;5055907;28;20041;-77
2021/03/20 07:50:18;;;;;;;5.03;2.63;;;8.50;99.90;;;;;;5055321;28;20036;-78
2021/03/20 07:53:05;;;;;;;3.72;2.53;;;9.50;99.90;;;;;;5054334;28;20032;-78
2021/03/20 07:55:49;;;;;;;;;;;12.00;93.30;;;;;;5054037;28;20101;-78
2021/03/20 07:58:23;;;;;;;4.82;1.85;;;13.80;75.50;;;;;;5054639;28;19916;-77
2021/03/20 08:01:01;;;;;;;4.78;2.05;;;12.00;78.80;;;;;;5053843;28;20437;-77
2021/03/20 08:03:30;;;;;;;1.67;1.48;;;14.50;64.00;;;;;;5053814;28;20494;-78
2021/03/20 08:06:18;;;;;;;1.65;1.17;;;14.30;59.00;;;;;;5052952;28;20539;-76
2021/03/20 08:08:43;;;;;;;2.20;2.00;;;13.00;58.60;;;;;;5052468;28;20051;-75
2021/03/20 08:11:27;;;;;;;;;;;12.70;59.60;;;;;;5054665;28;20468;-76
2021/03/20 08:13:58;;;;;;;2.60;1.10;;;12.80;61.20;;;;;;5054048;28;19909;-78
2021/03/20 08:16:24;;;;;;;3.72;2.20;;;13.80;55.50;;;;;;5055364;28;20397;-77
2021/03/20 08:18:54;;;;;;;2.20;1.67;;;13.80;58.50;;;;;;5054537;28;20032;-76
2021/03/20 08:21:20;;;;;;;1.77;1.23;;;14.60;56.50;;;;;;5052810;28;20392;-76
2021/03/20 08:24:22;;;;;;;2.53;1.65;;;15.90;52.00;;;;;;5052739;28;20021;-78
2021/03/20 08:27:17;;;;;;;2.33;1.27;;;16.50;49.70;;;;;;5053072;28;20029;-75
2021/03/20 08:30:03;;;;;;;1.73;1.13;;;15.30;49.80;;;;;;5052642;28;20032;-77
2021/03/20 08:32:38;;;;;;;0.65;0.60;;;13.10;49.30;;;;;;5053098;28;20519;-78
2021/03/20 08:35:15;;;;;;;0.80;0.57;;;13.60;50.90;;;;;;5054252;28;20025;-79
2021/03/20 08:38:03;;;;;;;1.73;1.30;;;14.50;47.60;;;;;;5052626;28;20029;-77
2021/03/20 08:41:06;;;;;;;0.73;0.70;;;15.20;45.80;;;;;;5053307;28;20021;-75
2021/03/20 08:43:47;;;;;;;0.73;0.73;;;16.00;44.70;;;;;;5052795;28;20480;-75
2021/03/20 08:46:57;;;;;;;1.17;1.00;;;16.40;48.10;;;;;;5052490;28;20036;-75
2021/03/20 08:49:35;;;;;;;0.77;0.60;;;16.70;43.50;;;;;;5053070;28;20028;-78
2021/03/20 08:52:24;;;;;;;1.90;0.70;;;17.00;43.80;;;;;;5055571;28;20028;-75
2021/03/20 08:55:35;;;;;;;1.52;1.02;;;17.50;40.50;;;;;;5071134;28;20028;-77
2021/03/20 08:58:06;;;;;;;1.70;0.73;;;18.20;38.80;;;;;;5070691;28;20028;-77
2021/03/20 09:00:53;;;;;;;1.05;0.65;;;15.90;39.60;;;;;;5054225;28;20020;-78
2021/03/20 09:03:21;;;;;;;;;;;14.20;41.70;;;;;;5054246;28;20116;-78
2021/03/20 09:05:53;;;;;;;0.70;0.57;;;11.70;44.50;;;;;;5073833;28;19908;-77
2021/03/20 09:08:29;;;;;;;;;;;9.70;47.50;;;;;;5075004;28;20031;-78
2021/03/20 09:10:58;;;;;;;1.35;0.90;;;8.60;52.40;;;;;;5075287;28;19957;-77
2021/03/20 09:13:33;;;;;;;1.05;0.80;;;10.00;50.80;;;;;;5074921;28;20021;-80
2021/03/20 09:16:04;;;;;;;0.77;0.43;;;11.10;52.30;;;;;;5073875;28;20101;-78
2021/03/20 09:18:30;;;;;;;;;;;11.40;49.10;;;;;;5074865;28;20031;-79
2021/03/20 09:21:05;;;;;;;;;;;10.70;50.10;;;;;;5076623;28;19911;-79
2021/03/20 09:23:38;;;;;;;1.85;0.88;;;10.80;51.50;;;;;;5074709;28;19908;-78
2021/03/20 09:26:05;;;;;;;;;;;10.20;51.80;;;;;;5074695;28;20159;-78
2021/03/20 09:29:00;;;;;;;;;;;9.40;54.90;;;;;;5075199;28;20352;-79
2021/03/20 09:31:28;;;;;;;1.50;1.00;;;8.50;58.00;;;;;;5057658;28;20022;-78
2021/03/20 09:33:55;;;;;;;1.70;1.05;;;9.30;70.30;;;;;;5074754;28;20090;-79
2021/03/20 09:36:21;;;;;;;0.80;0.60;;;11.50;58.60;;;;;;5077340;28;20078;-78
2021/03/20 09:38:49;;;;;;;;;;;12.30;55.30;;;;;;5077034;28;19908;-79
2021/03/20 09:41:14;;;;;;;;;;;13.20;49.80;;;;;;5075269;28;19911;-78
2021/03/20 09:43:42;;;;;;;1.00;0.85;;;11.00;52.80;;;;;;5075396;28;19905;-78
2021/03/20 09:46:37;;;;;;;1.67;1.33;;;10.20;55.80;;;;;;5075820;28;20051;-79
2021/03/20 09:49:06;;;;;;;1.85;1.13;;;12.20;53.20;;;;;;5074519;28;20067;-77
2021/03/20 09:51:59;;;;;;;4.25;1.00;;;14.80;46.20;;;;;;5074612;28;20475;-78
2021/03/20 09:54:43;;;;;;;1.27;0.90;;;15.10;45.70;;;;;;5075497;28;20021;-79
2021/03/20 09:57:12;;;;;;;2.58;1.27;;;15.70;43.50;;;;;;5072675;28;20036;-77
2021/03/20 09:59:37;;;;;;;1.20;0.88;;;19.40;40.90;;;;;;5074048;28;20066;-79
2021/03/20 10:02:09;;;;;;;1.60;1.02;;;20.90;38.80;;;;;;5072843;28;20024;-77
2021/03/20 10:04:56;;;;;;;0.50;0.50;;;20.90;39.40;;;;;;5072731;28;20029;-78
2021/03/20 10:07:22;;;;;;;2.72;1.35;;;21.30;38.80;;;;;;5074169;28;20024;-77
2021/03/20 10:10:06;;;;;;;1.25;1.00;;;20.20;37.90;;;;;;5072966;28;20077;-77
2021/03/20 10:12:43;;;;;;;1.23;0.80;;;19.10;38.70;;;;;;5073070;28;20025;-76
2021/03/20 10:15:15;;;;;;;1.33;0.82;;;20.40;37.10;;;;;;5071486;28;20032;-78
2021/03/20 10:18:03;;;;;;;1.35;0.90;;;16.30;37.80;;;;;;5065737;28;20087;-81
2021/03/20 10:20:42;;;;;;;;;;;13.30;42.20;;;;;;5063722;28;20067;-78
2021/03/20 10:23:46;;;;;;;1.15;0.85;;;11.30;46.40;;;;;;5063242;28;19908;-77
2021/03/20 10:26:14;;;;;;;;;;;10.70;50.50;;;;;;5069526;28;20016;-77
2021/03/20 10:28:43;;;;;;;;;;;11.50;46.70;;;;;;5074562;28;19986;-78
2021/03/20 10:31:12;;;;;;;2.08;1.00;;;13.80;44.30;;;;;;5076688;28;19908;-76
2021/03/20 10:33:40;;;;;;;0.88;0.57;;;15.80;43.80;;;;;;5079763;28;20115;-76
2021/03/20 10:36:34;;;;;;;1.20;0.82;;;16.90;38.80;;;;;;5082040;28;20020;-76
2021/03/20 10:38:59;;;;;;;1.33;0.88;;;15.90;38.70;;;;;;5076083;28;20024;-76
2021/03/20 10:41:37;;;;;;;0.95;0.70;;;16.80;41.20;;;;;;5063117;28;20089;-77
2021/03/20 10:44:40;;;;;;;0.37;0.37;;;16.10;40.00;;;;;;5066228;28;20041;-76
2021/03/20 10:47:22;;;;;;;1.95;0.65;;;16.90;37.40;;;;;;4999468;28;20595;-76
2021/03/20 10:50:01;;;;;;;1.10;0.88;;;18.50;36.90;;;;;;5050351;28;20029;-77
2021/03/20 10:52:32;;;;;;;2.45;1.17;;;19.40;33.70;;;;;;5055356;28;20028;-77
2021/03/20 10:55:01;;;;;;;1.10;0.68;;;19.70;33.10;;;;;;5055859;28;20143;-76
2021/03/20 10:57:30;;;;;;;0.50;0.50;;;18.90;35.40;;;;;;5053953;28;20116;-76
2021/03/20 10:59:57;;;;;;;1.00;0.70;;;17.40;34.00;;;;;;5055740;28;20021;-77
2021/03/20 11:02:24;;;;;;;0.60;0.60;;;15.50;36.80;;;;;;5056605;28;20017;-76
2021/03/20 11:04:52;;;;;;;1.40;0.50;;;17.00;37.20;;;;;;5054304;28;20058;-77
2021/03/20 11:07:23;;;;;;;1.15;0.45;;;18.00;36.50;;;;;;5055321;28;20427;-77
2021/03/20 11:09:50;;;;;;;0.73;0.70;;;17.70;36.90;;;;;;5053971;28;20025;-78
2021/03/20 11:12:29;;;;;;;0.52;0.52;;;18.80;34.30;;;;;;5055258;28;20434;-76
2021/03/20 11:14:59;;;;;;;0.95;0.70;;;19.80;33.00;;;;;;5074268;28;20403;-78
2021/03/20 11:17:28;;;;;;;0.98;0.50;;;19.60;34.70;;;;;;5073991;28;20123;-76
2021/03/20 11:20:20;;;;;;;0.60;0.55;;;17.60;35.70;;;;;;5075776;28;20032;-79
2021/03/20 11:22:46;;;;;;;0.38;0.38;;;15.70;33.40;;;;;;5075290;28;20118;-79
2021/03/20 11:25:27;;;;;;;2.17;0.70;;;16.40;33.80;;;;;;5075572;28;20107;-78
2021/03/20 11:28:04;;;;;;;0.52;0.50;;;16.90;35.90;;;;;;5074817;28;20025;-75
2021/03/20 11:30:52;;;;;;;0.77;0.50;;;16.30;35.60;;;;;;5069147;28;20116;-78
2021/03/20 11:33:19;;;;;;;;;;;14.60;35.30;;;;;;5066230;28;20028;-79
2021/03/20 11:35:52;;;;;;;;;;;14.50;35.00;;;;;;5065689;28;19915;-76
2021/03/20 11:38:19;;;;;;;;;;;15.40;33.40;;;;;;5070245;28;19931;-78
2021/03/20 11:40:47;;;;;;;0.93;0.63;;;13.90;35.40;;;;;;5065728;28;19912;-78
2021/03/20 11:43:38;;;;;;;1.83;1.13;;;13.60;36.70;;;;;;5059381;28;20515;-78
2021/03/20 11:46:24;;;;;;;2.30;1.10;;;14.60;33.70;;;;;;5055924;28;20032;-77
2021/03/20 11:49:00;;;;;;;;;;;14.20;35.00;;;;;;5057514;28;20017;-76
2021/03/20 11:51:30;;;;;;;;;;;13.60;35.90;;;;;;5066332;28;19963;-78
2021/03/20 11:54:00;;;;;;;;;;;14.40;35.60;;;;;;5065251;28;19905;-77
2021/03/20 11:56:25;;;;;;;;;;;14.10;35.40;;;;;;5068144;28;19996;-78
2021/03/20 11:58:52;;;;;;;;;;;14.20;35.50;;;;;;5069094;28;19908;-75
2021/03/20 12:01:44;;;;;;;0.70;0.40;;;14.20;36.80;;;;;;5066129;28;19915;-75
2021/03/20 12:04:10;;;;;;;;;;;13.70;37.10;;;;;;5069907;28;20437;-79
2021/03/20 12:06:36;;;;;;;;;;;12.20;36.30;;;;;;5075648;28;19908;-77
2021/03/20 12:09:22;;;;;;;;;;;11.40;39.00;;;;;;5074668;28;20282;-76
2021/03/20 12:11:48;;;;;;;;;;;11.40;34.90;;;;;;5060237;28;19926;-79
2021/03/20 12:14:33;;;;;;;;;;;10.50;38.10;;;;;;5074280;28;20395;-77
2021/03/20 12:17:11;;;;;;;;;;;10.30;35.70;;;;;;5059838;28;19914;-79
2021/03/20 12:19:48;;;;;;;;;;;10.90;38.80;;;;;;5074606;28;20371;-77
2021/03/20 12:22:16;;;;;;;;;;;10.70;36.30;;;;;;5074615;28;20330;-77
2021/03/20 12:24:43;;;;;;;;;;;10.80;36.00;;;;;;5074923;28;19904;-77
2021/03/20 12:27:25;;;;;;;;;;;11.30;36.10;;;;;;5076813;28;19904;-80
2021/03/20 12:30:17;;;;;;;;;;;10.80;36.10;;;;;;5075959;28;19999;-77
2021/03/20 12:32:47;;;;;;;;;;;10.50;38.10;;;;;;5074856;28;19912;-80
2021/03/20 12:35:14;;;;;;;;;;;10.00;37.00;;;;;;5076856;28;19946;-79
2021/03/20 12:37:39;;;;;;;;;;;10.00;38.30;;;;;;5075171;28;19987;-78
2021/03/20 12:40:06;;;;;;;;;;;10.60;39.30;;;;;;5075753;28;20022;-77
2021/03/20 12:42:31;;;;;;;;;;;11.70;38.20;;;;;;5075485;28;19944;-79
2021/03/20 12:44:57;;;;;;;;;;;11.60;36.70;;;;;;5074138;28;19909;-78
2021/03/20 12:47:22;;;;;;;;;;;11.70;37.70;;;;;;5074745;28;19911;-78
2021/03/20 12:49:47;;;;;;;;;;;11.10;38.70;;;;;;5073093;28;19904;-78
2021/03/20 12:52:18;;;;;;;;;;;10.60;42.50;;;;;;5075249;28;19908;-78
2021/03/20 12:54:44;;;;;;;;;;;9.90;38.10;;;;;;5074363;28;19991;-78
2021/03/20 12:57:16;;;;;;;;;;;9.60;39.10;;;;;;5074811;28;19915;-76
2021/03/20 12:59:41;;;;;;;;;;;8.80;40.20;;;;;;5075199;28;19905;-77
2021/03/20 13:02:07;;;;;;;;;;;8.80;40.70;;;;;;5077685;28;19904;-80
2021/03/20 13:04:32;;;;;;;;;;;8.90;38.30;;;;;;5077442;28;19997;-80
2021/03/20 13:06:58;;;;;;;;;;;9.20;40.20;;;;;;5075624;28;19967;-79
2021/03/20 13:09:23;;;;;;;;;;;9.20;39.70;;;;;;5075756;28;19931;-79
2021/03/20 13:11:48;;;;;;;;;;;8.80;41.80;;;;;;5078192;28;19916;-79
2021/03/20 13:14:16;;;;;;;;;;;9.20;40.60;;;;;;5078521;28;19964;-79
2021/03/20 13:16:43;;;;;;;;;;;9.20;42.50;;;;;;5077862;28;19911;-79
2021/03/20 13:19:08;;;;;;;;;;;9.10;40.50;;;;;;5076663;28;19936;-79
2021/03/20 13:21:35;;;;;;;;;;;9.00;40.30;;;;;;5075312;28;19958;-80
2021/03/20 13:24:03;;;;;;;;;;;8.70;40.90;;;;;;5072675;28;20406;-78
2021/03/20 13:26:29;;;;;;;;;;;9.10;40.10;;;;;;5073632;28;19905;-79
2021/03/20 13:28:54;;;;;;;;;;;9.50;40.00;;;;;;5073438;28;19904;-77
2021/03/20 13:31:20;;;;;;;;;;;9.30;43.40;;;;;;5073242;28;19958;-77
2021/03/20 13:33:45;;;;;;;;;;;9.70;44.70;;;;;;5073795;28;20317;-79
2021/03/20 13:36:11;;;;;;;;;;;9.90;42.80;;;;;;5073237;28;19912;-78
2021/03/20 13:38:37;;;;;;;;;;;9.90;43.00;;;;;;5072474;28;19916;-78
2021/03/20 13:41:03;;;;;;;;;;;9.70;41.60;;;;;;5057843;28;19916;-77
2021/03/20 13:43:29;;;;;;;;;;;9.40;40.30;;;;;;5061134;28;19905;-76
2021/03/20 13:45:54;;;;;;;;;;;9.70;43.10;;;;;;5060275;28;19915;-77
2021/03/20 13:48:21;;;;;;;;;;;9.70;40.60;;;;;;5065783;28;19916;-80
2021/03/20 13:50:47;;;;;;;;;;;9.50;43.70;;;;;;5059685;28;20005;-79
2021/03/20 13:53:14;;;;;;;;;;;9.00;39.10;;;;;;5070930;28;19948;-79
2021/03/20 13:55:39;;;;;;;;;;;8.80;43.30;;;;;;5058952;28;20019;-78
2021/03/20 13:58:05;;;;;;;;;;;8.60;42.10;;;;;;5062274;28;19944;-76
2021/03/20 14:00:30;;;;;;;;;;;8.30;44.60;;;;;;5055123;28;19967;-77
2021/03/20 14:02:56;;;;;;;;;;;7.80;46.40;;;;;;5064420;28;19904;-77
2021/03/20 14:05:21;;;;;;;;;;;7.70;48.40;;;;;;5066956;28;19904;-78
2021/03/20 14:07:47;;;;;;;;;;;7.70;45.20;;;;;;5078522;28;19927;-78
2021/03/20 14:10:15;;;;;;;;;;;7.60;45.50;;;;;;5078765;28;19915;-78
2021/03/20 14:12:41;;;;;;;;;;;7.10;46.60;;;;;;5077694;28;19911;-79
2021/03/20 14:15:07;;;;;;;;;;;7.20;45.80;;;;;;5075638;28;19904;-81
2021/03/20 14:17:32;;;;;;;;;;;6.90;45.60;;;;;;5069733;28;20287;-77
2021/03/20 14:19:58;;;;;;;;;;;6.90;46.80;;;;;;5079403;28;19905;-79